createdAt,value
2022-10-23T00:02:02.541Z,98542.41
2022-10-23T00:04:30.189Z,98546.00
2022-10-23T00:06:57.460Z,98552.78
2022-10-23T00:09:25.403Z,98545.59
2022-10-23T00:11:53.742Z,98542.47
2022-10-23T00:14:24.946Z,98531.72
2022-10-23T00:16:52.449Z,98544.78
2022-10-23T00:19:19.779Z,98530.84
2022-10-23T00:21:47.156Z,98536.06
2022-10-23T00:24:14.599Z,98529.69
2022-10-23T00:26:42.389Z,98527.75
2022-10-23T00:29:10.917Z,98534.84
2022-10-23T00:31:39.067Z,98532.88
2022-10-23T00:34:08.451Z,98543.22
2022-10-23T00:36:36.971Z,98542.84
2022-10-23T00:39:05.615Z,98534.41
2022-10-23T00:41:32.926Z,98534.03
2022-10-23T00:44:09.315Z,98538.47
2022-10-23T00:46:39.596Z,98534.47
2022-10-23T00:49:09.418Z,98532.03
2022-10-23T00:51:47.849Z,98532.09
2022-10-23T00:54:24.324Z,98522.09
2022-10-23T00:56:58.065Z,98514.22
2022-10-23T00:59:27.623Z,98515.47
2022-10-23T01:01:55.833Z,98510.69
2022-10-23T01:04:26.008Z,98509.13
2022-10-23T01:07:32.820Z,98505.97
2022-10-23T01:10:26.720Z,98505.56
2022-10-23T01:13:34.428Z,98505.53
2022-10-23T01:16:26.889Z,98492.41
2022-10-23T01:19:20.394Z,98491.66
2022-10-23T01:22:02.555Z,98492.47
2022-10-23T01:24:52.626Z,98487.28
2022-10-23T01:27:39.856Z,98490.47
2022-10-23T01:30:19.085Z,98493.25
2022-10-23T01:33:37.453Z,98498.00
2022-10-23T01:36:13.459Z,98496.06
2022-10-23T01:39:10.841Z,98500.41
2022-10-23T01:41:58.072Z,98503.59
2022-10-23T01:44:57.236Z,98490.91
2022-10-23T01:47:31.164Z,98498.84
2022-10-23T01:50:00.043Z,98496.44
2022-10-23T01:52:27.748Z,98493.69
2022-10-23T01:55:00.403Z,98488.50
2022-10-23T01:57:32.989Z,98483.72
2022-10-23T02:00:12.441Z,98482.56
2022-10-23T02:02:42.429Z,98472.25
2022-10-23T02:05:29.054Z,98462.69
2022-10-23T02:07:57.292Z,98463.50
2022-10-23T02:11:00.638Z,98457.94
2022-10-23T02:14:01.850Z,98472.66
2022-10-23T02:16:53.235Z,98463.13
2022-10-23T02:19:56.397Z,98452.81
2022-10-23T02:22:30.490Z,98454.38
2022-10-23T02:25:20.703Z,98452.78
2022-10-23T02:27:54.919Z,98448.84
2022-10-23T02:30:22.552Z,98438.50
2022-10-23T02:32:54.756Z,98448.06
2022-10-23T02:35:24.837Z,98448.84
2022-10-23T02:38:00.440Z,98451.97
2022-10-23T02:40:43.048Z,98433.72
2022-10-23T02:43:29.079Z,98428.16
2022-10-23T02:46:50.005Z,98441.63
2022-10-23T02:50:23.057Z,98420.59
2022-10-23T02:53:22.496Z,98413.88
2022-10-23T02:56:57.031Z,98419.38
2022-10-23T02:59:43.981Z,98410.22
2022-10-23T03:03:09.304Z,98405.16
2022-10-23T03:05:41.456Z,98398.00
2022-10-23T03:08:11.820Z,98398.81
2022-10-23T03:10:40.763Z,98401.59
2022-10-23T03:13:10.801Z,98398.03
2022-10-23T03:15:38.367Z,98395.25
2022-10-23T03:18:05.704Z,98388.91
2022-10-23T03:20:32.973Z,98391.28
2022-10-23T03:23:00.324Z,98393.28
2022-10-23T03:25:28.486Z,98388.91
2022-10-23T03:27:55.820Z,98389.31
2022-10-23T03:30:24.024Z,98386.88
2022-10-23T03:32:51.309Z,98386.13
2022-10-23T03:35:18.580Z,98386.88
2022-10-23T03:37:45.987Z,98383.69
2022-10-23T03:40:13.360Z,98399.97
2022-10-23T03:42:40.632Z,98392.44
2022-10-23T03:45:08.789Z,98392.84
2022-10-23T03:47:41.119Z,98398.81
2022-10-23T03:50:10.985Z,98398.41
2022-10-23T03:52:38.293Z,98394.47
2022-10-23T03:55:07.100Z,98390.84
2022-10-23T03:57:34.375Z,98396.44
2022-10-23T04:00:01.913Z,98401.19
2022-10-23T04:02:29.319Z,98383.31
2022-10-23T04:04:56.633Z,98382.53
2022-10-23T04:07:24.076Z,98390.88
2022-10-23T04:09:52.760Z,98380.53
2022-10-23T04:12:20.026Z,98387.69
2022-10-23T04:14:47.275Z,98379.75
2022-10-23T04:17:14.577Z,98390.91
2022-10-23T04:19:41.879Z,98381.38
2022-10-23T04:22:09.150Z,98383.75
2022-10-23T04:24:36.405Z,98384.16
2022-10-23T04:27:04.927Z,98386.13
2022-10-23T04:29:32.532Z,98386.94
2022-10-23T04:31:59.783Z,98388.13
2022-10-23T04:34:27.042Z,98386.13
2022-10-23T04:36:54.297Z,98387.72
2022-10-23T04:39:21.603Z,98393.69
2022-10-23T04:41:48.957Z,98394.84
2022-10-23T04:44:16.425Z,98396.81
2022-10-23T04:46:43.676Z,98393.28
2022-10-23T04:49:10.952Z,98391.69
2022-10-23T04:51:38.542Z,98391.28
2022-10-23T04:54:05.867Z,98408.31
2022-10-23T04:56:33.128Z,98406.75
2022-10-23T04:59:00.777Z,98406.78
2022-10-23T05:01:28.154Z,98402.78
2022-10-23T05:03:56.738Z,98373.84
2022-10-23T05:06:24.001Z,98387.72
2022-10-23T05:08:51.354Z,98387.72
2022-10-23T05:11:18.947Z,98395.22
2022-10-23T05:13:46.306Z,98403.22
2022-10-23T05:17:09.362Z,98394.44
2022-10-23T05:19:51.487Z,98394.81
2022-10-23T05:22:24.003Z,98392.84
2022-10-23T05:24:51.784Z,98392.09
2022-10-23T05:27:19.117Z,98392.47
2022-10-23T05:29:46.397Z,98402.78
2022-10-23T05:32:16.256Z,98382.16
2022-10-23T05:34:43.992Z,98388.47
2022-10-23T05:37:16.016Z,98379.38
2022-10-23T05:39:43.581Z,98388.88
2022-10-23T05:42:10.960Z,98382.13
2022-10-23T05:44:38.352Z,98376.19
2022-10-23T05:47:06.765Z,98372.63
2022-10-23T05:49:34.147Z,98378.53
2022-10-23T05:52:01.402Z,98390.06
2022-10-23T05:54:28.673Z,98386.06
2022-10-23T05:56:56.841Z,98368.63
2022-10-23T05:59:24.112Z,98382.13
2022-10-23T06:01:51.439Z,98373.78
2022-10-23T06:04:18.757Z,98385.28
2022-10-23T06:06:47.330Z,98383.31
2022-10-23T06:09:16.396Z,98383.72
2022-10-23T06:11:44.518Z,98367.81
2022-10-23T06:14:11.800Z,98370.97
2022-10-23T06:16:39.069Z,98371.75
2022-10-23T06:19:10.157Z,98369.41
2022-10-23T06:21:39.560Z,98372.56
2022-10-23T06:24:08.097Z,98378.09
2022-10-23T06:26:35.656Z,98375.38
2022-10-23T06:29:03.268Z,98364.63
2022-10-23T06:31:30.692Z,98388.88
2022-10-23T06:33:59.853Z,98369.41
2022-10-23T06:36:27.617Z,98368.63
2022-10-23T06:38:56.398Z,98380.91
2022-10-23T06:41:23.884Z,98386.47
2022-10-23T06:43:51.948Z,98367.03
2022-10-23T06:46:20.292Z,98369.84
2022-10-23T06:48:48.160Z,98366.25
2022-10-23T06:51:17.560Z,98365.84
2022-10-23T06:53:46.181Z,98359.13
2022-10-23T06:56:13.820Z,98359.13
2022-10-23T06:58:42.136Z,98364.66
2022-10-23T07:01:14.065Z,98373.41
2022-10-23T07:03:41.809Z,98370.25
2022-10-23T07:06:11.095Z,98358.31
2022-10-23T07:08:38.992Z,98365.06
2022-10-23T07:11:10.740Z,98372.59
2022-10-23T07:13:40.548Z,98367.84
2022-10-23T07:16:21.948Z,98367.88
2022-10-23T07:18:59.608Z,98382.97
2022-10-23T07:21:35.149Z,98368.69
2022-10-23T07:24:04.408Z,98369.09
2022-10-23T07:26:32.911Z,98370.22
2022-10-23T07:29:00.301Z,98366.69
2022-10-23T07:31:28.463Z,98365.88
2022-10-23T07:33:55.915Z,98370.66
2022-10-23T07:36:23.221Z,98378.94
2022-10-23T07:38:52.150Z,98368.59
2022-10-23T07:41:19.656Z,98376.91
2022-10-23T07:43:46.969Z,98384.44
2022-10-23T07:46:14.660Z,98371.38
2022-10-23T07:48:41.934Z,98375.34
2022-10-23T07:51:15.585Z,98366.94
2022-10-23T07:53:43.848Z,98368.59
2022-10-23T07:56:18.484Z,98362.19
2022-10-23T07:58:45.944Z,98367.72
2022-10-23T08:01:50.558Z,98366.13
2022-10-23T08:04:21.432Z,98362.94
2022-10-23T08:06:49.911Z,98360.47
2022-10-23T08:09:17.467Z,98361.28
2022-10-23T08:11:44.748Z,98363.47
2022-10-23T08:14:14.840Z,98369.72
2022-10-23T08:16:42.112Z,98364.66
2022-10-23T08:19:10.759Z,98353.97
2022-10-23T08:21:38.580Z,98354.75
2022-10-23T08:24:06.500Z,98342.22
2022-10-23T08:26:33.908Z,98344.25
2022-10-23T08:29:01.682Z,98349.81
2022-10-23T08:31:28.988Z,98339.81
2022-10-23T08:33:56.281Z,98344.94
2022-10-23T08:36:29.304Z,98327.84
2022-10-23T08:38:58.605Z,98330.59
2022-10-23T08:41:42.973Z,98316.94
2022-10-23T08:44:57.265Z,98329.81
2022-10-23T08:47:44.400Z,98324.97
2022-10-23T08:50:42.546Z,98336.84
2022-10-23T08:53:52.885Z,98333.81
2022-10-23T08:56:38.233Z,98322.41
2022-10-23T08:59:33.308Z,98315.97
2022-10-23T09:02:29.564Z,98312.84
2022-10-23T09:04:58.658Z,98318.16
2022-10-23T09:08:25.937Z,98313.63
2022-10-23T09:11:35.969Z,98314.16
2022-10-23T09:14:50.171Z,98313.56
2022-10-23T09:17:29.869Z,98298.78
2022-10-23T09:20:31.893Z,98313.03
2022-10-23T09:23:24.197Z,98297.72
2022-10-23T09:25:57.026Z,98297.44
2022-10-23T09:28:33.444Z,98307.16
2022-10-23T09:31:12.791Z,98295.91
2022-10-23T09:33:40.915Z,98287.38
2022-10-23T09:36:23.441Z,98279.59
2022-10-23T09:38:55.649Z,98287.25
2022-10-23T09:41:39.885Z,98282.47
2022-10-23T09:44:33.196Z,98276.72
2022-10-23T09:47:12.027Z,98273.97
2022-10-23T09:49:56.954Z,98269.03
2022-10-23T09:52:36.791Z,98277.03
2022-10-23T09:55:24.895Z,98277.50
2022-10-23T09:57:53.891Z,98271.66
2022-10-23T10:00:27.664Z,98267.97
2022-10-23T10:03:22.674Z,98283.13
2022-10-23T10:06:04.537Z,98277.34
2022-10-23T10:08:51.686Z,98282.50
2022-10-23T10:11:47.663Z,98289.09
2022-10-23T10:15:22.385Z,98290.09
2022-10-23T10:18:29.708Z,98293.50
2022-10-23T10:22:04.779Z,98307.81
2022-10-23T10:25:26.161Z,98297.03
2022-10-23T10:29:19.959Z,98303.38
2022-10-23T10:32:34.877Z,98301.03
2022-10-23T10:40:02.839Z,98277.72
2022-10-23T10:43:39.022Z,98287.19
2022-10-23T10:46:55.057Z,98284.75
2022-10-23T10:49:40.568Z,98288.84
2022-10-23T10:52:43.223Z,98278.72
2022-10-23T10:55:38.761Z,98277.41
2022-10-23T10:58:45.360Z,98276.16
2022-10-23T11:01:53.435Z,98255.56
2022-10-23T11:05:14.985Z,98249.75
2022-10-23T11:08:07.607Z,98244.88
2022-10-23T11:10:46.072Z,98237.19
2022-10-23T11:13:42.072Z,98235.34
2022-10-23T11:16:31.305Z,98237.56
2022-10-23T11:19:57.952Z,98238.72
2022-10-23T11:22:57.592Z,98236.16
2022-10-23T11:26:46.773Z,98231.44
2022-10-23T11:30:20.613Z,98211.25
2022-10-23T11:33:53.962Z,98210.72
2022-10-23T11:36:58.405Z,98206.06
2022-10-23T11:39:33.884Z,98220.50
2022-10-23T11:42:29.351Z,98196.31
2022-10-23T11:44:56.648Z,98186.16
2022-10-23T11:47:40.584Z,98193.69
2022-10-23T11:50:07.753Z,98185.75
2022-10-23T11:53:14.778Z,98187.09
2022-10-23T11:56:12.601Z,98182.78
2022-10-23T11:58:56.924Z,98168.91
2022-10-23T12:01:52.151Z,98177.06
2022-10-23T12:04:30.778Z,98150.66
2022-10-23T12:07:05.305Z,98156.41
2022-10-23T12:09:47.041Z,98147.25
2022-10-23T12:12:40.599Z,98143.50
2022-10-23T12:15:18.822Z,98143.28
2022-10-23T12:17:49.381Z,98128.16
2022-10-23T12:20:49.467Z,98130.63
2022-10-23T12:23:55.128Z,98125.63
2022-10-23T12:27:04.460Z,98118.25
2022-10-23T12:30:04.598Z,98123.16
2022-10-23T12:33:23.493Z,98104.00
2022-10-23T12:36:44.252Z,98088.97
2022-10-23T12:39:38.256Z,98107.91
2022-10-23T12:42:28.417Z,98090.78
2022-10-23T12:45:11.537Z,98089.19
2022-10-23T12:47:39.479Z,98094.91
2022-10-23T12:50:27.343Z,98080.16
2022-10-23T12:53:07.616Z,98078.34
2022-10-23T12:56:07.438Z,98088.03
2022-10-23T12:58:35.836Z,98089.94
2022-10-23T13:01:07.753Z,98071.72
2022-10-23T13:03:38.124Z,98077.75
2022-10-23T13:06:05.833Z,98082.94
2022-10-23T13:08:46.808Z,98081.00
2022-10-23T13:11:20.651Z,98079.34
2022-10-23T13:13:49.421Z,98077.66
2022-10-23T13:16:24.456Z,98076.53
2022-10-23T13:18:53.569Z,98060.88
2022-10-23T13:21:28.760Z,98057.56
2022-10-23T13:23:56.392Z,98055.03
2022-10-23T13:26:45.209Z,98065.88
2022-10-23T13:29:29.652Z,98045.13
2022-10-23T13:31:57.911Z,98050.72
2022-10-23T13:34:30.914Z,98036.88
2022-10-23T13:37:21.726Z,98041.78
2022-10-23T13:40:21.025Z,98043.66
2022-10-23T13:42:54.976Z,98040.31
2022-10-23T13:45:27.005Z,98033.22
2022-10-23T13:47:54.484Z,98023.13
2022-10-23T13:50:21.757Z,98045.16
2022-10-23T13:52:49.020Z,98027.97
2022-10-23T13:55:25.468Z,98008.09
2022-10-23T13:57:52.875Z,98021.69
2022-10-23T14:00:20.267Z,98010.91
2022-10-23T14:02:47.692Z,98011.16
2022-10-23T14:05:15.184Z,98020.88
2022-10-23T14:07:42.861Z,98020.88
2022-10-23T14:10:10.487Z,98017.09
2022-10-23T14:12:44.407Z,98031.69
2022-10-23T14:15:12.208Z,98029.28
2022-10-23T14:17:39.496Z,98034.91
2022-10-23T14:20:08.612Z,98023.81
2022-10-23T14:22:36.008Z,98022.59
2022-10-23T14:25:03.984Z,98024.94
2022-10-23T14:27:31.600Z,98029.88
2022-10-23T14:29:59.416Z,98024.38
2022-10-23T14:32:26.880Z,98022.34
2022-10-23T14:34:57.117Z,98036.59
2022-10-23T14:37:24.401Z,98045.22
2022-10-23T14:39:51.657Z,98064.75
2022-10-23T14:42:19.740Z,98060.91
2022-10-23T14:44:49.354Z,98067.88
2022-10-23T14:47:21.240Z,98064.47
2022-10-23T14:49:53.166Z,98072.97
2022-10-23T14:52:20.684Z,98100.28
2022-10-23T14:54:48.116Z,98077.53
2022-10-23T14:57:17.869Z,98064.84
2022-10-23T14:59:45.145Z,98056.69
2022-10-23T15:02:12.814Z,98048.56
2022-10-23T15:04:40.464Z,98043.41
2022-10-23T15:07:08.885Z,98018.03
2022-10-23T15:09:36.695Z,98038.78
2022-10-23T15:12:05.413Z,98012.91
2022-10-23T15:14:33.062Z,98015.72
2022-10-23T15:17:00.390Z,98015.44
2022-10-23T15:19:27.995Z,98008.53
2022-10-23T15:21:55.363Z,98018.16
2022-10-23T15:24:24.563Z,97989.28
2022-10-23T15:26:52.047Z,97972.34
2022-10-23T15:29:20.058Z,97964.19
2022-10-23T15:31:58.299Z,97954.78
2022-10-23T15:34:29.416Z,97956.72
2022-10-23T15:36:58.185Z,97950.97
2022-10-23T15:39:35.598Z,97951.22
2022-10-23T15:42:06.778Z,97950.00
2022-10-23T15:44:34.615Z,97948.88
2022-10-23T15:47:01.993Z,97946.34
2022-10-23T15:49:30.047Z,97945.66
2022-10-23T15:51:57.873Z,97950.91
2022-10-23T15:54:28.123Z,97941.56
2022-10-23T15:56:58.389Z,97935.44
2022-10-23T15:59:26.888Z,97932.28
2022-10-23T16:01:55.532Z,97938.88
2022-10-23T16:04:23.736Z,97951.50
2022-10-23T16:06:51.028Z,97931.91
2022-10-23T16:09:18.363Z,97961.81
2022-10-23T16:11:47.082Z,97960.63
2022-10-23T16:14:17.439Z,97949.41
2022-10-23T16:16:45.093Z,97952.06
2022-10-23T16:19:13.002Z,97958.25
2022-10-23T16:21:41.344Z,97952.97
2022-10-23T16:24:09.858Z,97966.81
2022-10-23T16:26:39.035Z,97958.84
2022-10-23T16:29:09.450Z,97971.25
2022-10-23T16:31:36.892Z,97991.72
2022-10-23T16:34:05.754Z,97996.03
2022-10-23T16:36:34.845Z,97997.69
2022-10-23T16:39:03.812Z,98006.88
2022-10-23T16:41:31.958Z,98016.94
2022-10-23T16:43:59.283Z,98015.53
2022-10-23T16:46:26.997Z,98015.88
2022-10-23T16:48:54.304Z,98021.69
2022-10-23T16:51:26.763Z,98033.56
2022-10-23T16:53:55.241Z,98041.09
2022-10-23T16:56:28.686Z,98059.25
2022-10-23T17:01:46.464Z,98071.69
2022-10-23T17:04:13.880Z,98063.22
2022-10-23T17:06:41.381Z,98068.72
2022-10-23T17:09:08.701Z,98067.28
2022-10-23T17:11:40.499Z,98087.75
2022-10-23T17:14:15.961Z,98096.31
2022-10-23T17:16:52.608Z,98089.13
2022-10-23T17:19:45.222Z,98098.63
2022-10-23T17:22:13.206Z,98105.31
2022-10-23T17:24:44.206Z,98112.41
2022-10-23T17:27:14.008Z,98126.81
2022-10-23T17:29:41.298Z,98125.91
2022-10-23T17:32:08.639Z,98134.69
2022-10-23T17:34:36.950Z,98134.81
2022-10-23T17:37:04.552Z,98119.72
2022-10-23T17:39:31.813Z,98124.94
2022-10-23T17:42:00.106Z,98134.97
2022-10-23T17:44:29.115Z,98138.78
2022-10-23T17:46:56.471Z,98136.53
2022-10-23T17:49:25.406Z,98140.56
2022-10-23T17:51:58.291Z,98154.38
2022-10-23T17:54:28.406Z,98164.72
2022-10-23T17:56:56.037Z,98165.63
2022-10-23T17:59:23.935Z,98176.50
2022-10-23T18:01:51.477Z,98173.38
2022-10-23T18:04:20.846Z,98184.63
2022-10-23T18:06:53.269Z,98193.03
2022-10-23T18:09:23.057Z,98191.13
2022-10-23T18:11:50.732Z,98216.19
2022-10-23T18:14:21.520Z,98218.56
2022-10-23T18:16:49.853Z,98239.69
2022-10-23T18:19:18.714Z,98213.53
2022-10-23T18:21:47.866Z,98179.38
2022-10-23T18:24:16.325Z,98193.72
2022-10-23T18:26:44.687Z,98196.94
2022-10-23T18:29:13.556Z,98187.84
2022-10-23T18:31:42.495Z,98143.81
2022-10-23T18:34:25.242Z,98155.97
2022-10-23T18:36:54.812Z,98140.47
2022-10-23T18:39:25.897Z,98198.09
2022-10-23T18:41:57.723Z,98199.91
2022-10-23T18:44:29.261Z,98177.63
2022-10-23T18:46:59.457Z,98170.56
2022-10-23T18:49:27.881Z,98153.97
2022-10-23T18:51:55.597Z,98163.72
2022-10-23T18:54:23.029Z,98145.97
2022-10-23T18:56:50.821Z,98185.72
2022-10-23T18:59:22.249Z,98189.22
2022-10-23T19:01:50.782Z,98183.38
2022-10-23T19:04:20.417Z,98179.47
2022-10-23T19:06:50.273Z,98174.72
2022-10-23T19:09:18.221Z,98152.03
2022-10-23T19:11:46.018Z,98153.75
2022-10-23T19:14:14.127Z,98134.75
2022-10-23T19:17:29.684Z,98156.31
2022-10-23T19:20:14.945Z,98151.81
2022-10-23T19:22:47.342Z,98140.25
2022-10-23T19:25:25.529Z,98138.22
2022-10-23T19:27:55.486Z,98133.16
2022-10-23T19:30:24.984Z,98131.50
2022-10-23T19:32:52.584Z,98180.31
2022-10-23T19:35:22.417Z,98134.72
2022-10-23T19:37:50.827Z,98151.66
2022-10-23T19:40:18.609Z,98166.53
2022-10-23T19:42:46.012Z,98177.88
2022-10-23T19:45:16.464Z,98175.25
2022-10-23T19:47:44.750Z,98204.03
2022-10-23T19:50:12.297Z,98206.22
2022-10-23T19:52:39.728Z,98198.56
2022-10-23T19:55:08.930Z,98198.22
2022-10-23T19:57:37.159Z,98209.25
2022-10-23T20:00:08.276Z,98198.00
2022-10-23T20:05:23.241Z,98196.81
2022-10-23T20:07:51.386Z,98199.41
2022-10-23T20:10:18.898Z,98200.53
2022-10-23T20:12:56.356Z,98192.56
2022-10-23T20:15:29.845Z,98196.84
2022-10-23T20:17:58.614Z,98200.56
2022-10-23T20:20:25.872Z,98199.13
2022-10-23T20:22:55.296Z,98224.75
2022-10-23T20:25:22.850Z,98209.94
2022-10-23T20:27:52.505Z,98233.13
2022-10-23T20:30:19.797Z,98229.31
2022-10-23T20:32:48.477Z,98245.28
2022-10-23T20:35:16.207Z,98246.75
2022-10-23T20:37:43.734Z,98226.25
2022-10-23T20:40:11.476Z,98203.91
2022-10-23T20:42:38.810Z,98224.66
2022-10-23T20:45:07.209Z,98210.81
2022-10-23T20:47:34.597Z,98209.94
2022-10-23T20:50:01.852Z,98206.63
2022-10-23T20:52:30.144Z,98205.28
2022-10-23T20:54:57.527Z,98224.84
2022-10-23T20:57:24.920Z,98193.50
2022-10-23T20:59:53.714Z,98201.34
2022-10-23T21:02:21.909Z,98196.78
2022-10-23T21:04:50.459Z,98204.75
2022-10-23T21:07:18.315Z,98204.94
2022-10-23T21:09:45.977Z,98198.66
2022-10-23T21:12:13.333Z,98199.59
2022-10-23T21:14:40.601Z,98200.28
2022-10-23T21:17:08.873Z,98203.47
2022-10-23T21:19:36.648Z,98204.50
2022-10-23T21:22:04.018Z,98213.16
2022-10-23T21:24:31.512Z,98214.66
2022-10-23T21:26:58.829Z,98213.88
2022-10-23T21:29:26.101Z,98196.19
2022-10-23T21:32:01.489Z,98220.53
2022-10-23T21:34:30.255Z,98223.28
2022-10-23T21:37:14.740Z,98238.88
2022-10-23T21:39:46.348Z,98227.66
2022-10-23T21:42:15.275Z,98219.69
2022-10-23T21:44:42.864Z,98204.94
2022-10-23T21:47:10.257Z,98216.78
2022-10-23T21:49:37.837Z,98195.84
2022-10-23T21:52:05.450Z,98209.97
2022-10-23T21:54:32.956Z,98214.66
2022-10-23T21:57:00.247Z,98221.91
2022-10-23T21:59:30.274Z,98246.22
2022-10-23T22:01:59.405Z,98241.19
2022-10-23T22:04:26.799Z,98234.28
2022-10-23T22:06:54.057Z,98241.31
2022-10-23T22:09:22.835Z,98238.75
2022-10-23T22:11:53.275Z,98237.41
2022-10-23T22:14:22.200Z,98234.28
2022-10-23T22:16:49.914Z,98220.16
2022-10-23T22:19:21.025Z,98212.03
2022-10-23T22:21:50.315Z,98207.50
2022-10-23T22:24:18.264Z,98211.88
2022-10-23T22:26:54.499Z,98213.28
2022-10-23T22:29:29.451Z,98206.16
2022-10-23T22:31:58.307Z,98209.69
2022-10-23T22:37:17.524Z,98202.75
2022-10-23T22:39:44.786Z,98192.97
2022-10-23T22:42:12.265Z,98201.72
2022-10-23T22:44:40.411Z,98198.56
2022-10-23T22:47:07.804Z,98196.63
2022-10-23T22:49:35.150Z,98196.28
2022-10-23T22:52:02.415Z,98199.97
2022-10-23T22:54:31.403Z,98184.19
2022-10-23T22:56:58.883Z,98174.41
2022-10-23T22:59:26.979Z,98178.34
2022-10-23T23:01:54.551Z,98179.56
2022-10-23T23:04:38.573Z,98171.06
2022-10-23T23:07:12.577Z,98162.06
2022-10-23T23:09:45.050Z,98161.72
2022-10-23T23:12:16.007Z,98169.69
2022-10-23T23:14:43.645Z,98163.69
2022-10-23T23:17:12.279Z,98163.31
2022-10-23T23:19:39.709Z,98174.78
2022-10-23T23:22:07.087Z,98171.72
2022-10-23T23:24:34.626Z,98173.59
2022-10-23T23:27:02.216Z,98188.19
2022-10-23T23:29:29.683Z,98185.78
2022-10-23T23:31:57.229Z,98198.03
2022-10-23T23:34:24.661Z,98202.25
2022-10-23T23:36:52.040Z,98184.28
2022-10-23T23:39:19.804Z,98186.22
2022-10-23T23:41:47.101Z,98175.19
2022-10-23T23:44:14.365Z,98181.47
2022-10-23T23:46:41.653Z,98164.56
2022-10-23T23:49:08.932Z,98179.97
2022-10-23T23:51:37.191Z,98189.44
2022-10-23T23:54:04.537Z,98185.91
2022-10-23T23:56:32.024Z,98181.84
2022-10-23T23:58:59.311Z,98207.00
